sensor_id;sensor_type;location;lat;lon;timestamp;temperature;humidity
16038;DHT22;8123;50.906;6.172;2023-09-07T00:01:43;17.80;1.00
16038;DHT22;8123;50.906;6.172;2023-09-07T00:04:09;17.90;99.90
16038;DHT22;8123;50.906;6.172;2023-09-07T00:06:35;17.90;1.00
16038;DHT22;8123;50.906;6.172;2023-09-07T00:09:02;17.90;99.90
16038;DHT22;8123;50.906;6.172;2023-09-07T00:11:29;17.90;1.00
16038;DHT22;8123;50.906;6.172;2023-09-07T00:13:54;17.80;99.90
16038;DHT22;8123;50.906;6.172;2023-09-07T00:16:20;17.80;1.00
16038;DHT22;8123;50.906;6.172;2023-09-07T00:18:46;17.90;1.00
16038;DHT22;8123;50.906;6.172;2023-09-07T00:21:11;17.90;1.00
16038;DHT22;8123;50.906;6.172;2023-09-07T00:23:37;17.80;1.00
16038;DHT22;8123;50.906;6.172;2023-09-07T00:26:02;17.90;1.00
16038;DHT22;8123;50.906;6.172;2023-09-07T00:28:28;17.90;1.00
16038;DHT22;8123;50.906;6.172;2023-09-07T00:30:54;17.90;1.00
16038;DHT22;8123;50.906;6.172;2023-09-07T00:33:20;17.80;1.00
16038;DHT22;8123;50.906;6.172;2023-09-07T00:35:46;17.90;1.00
16038;DHT22;8123;50.906;6.172;2023-09-07T00:38:11;17.80;1.00
16038;DHT22;8123;50.906;6.172;2023-09-07T00:40:37;17.80;1.00
16038;DHT22;8123;50.906;6.172;2023-09-07T00:43:03;17.80;1.00
16038;DHT22;8123;50.906;6.172;2023-09-07T00:45:30;17.70;1.00
16038;DHT22;8123;50.906;6.172;2023-09-07T00:47:56;17.70;1.00
16038;DHT22;8123;50.906;6.172;2023-09-07T00:50:21;17.70;75.20
16038;DHT22;8123;50.906;6.172;2023-09-07T00:52:47;17.60;99.90
16038;DHT22;8123;50.906;6.172;2023-09-07T00:55:13;17.50;99.90
16038;DHT22;8123;50.906;6.172;2023-09-07T00:57:39;17.50;1.00
16038;DHT22;8123;50.906;6.172;2023-09-07T01:00:05;17.40;1.00
16038;DHT22;8123;50.906;6.172;2023-09-07T01:02:33;17.40;1.00
16038;DHT22;8123;50.906;6.172;2023-09-07T01:04:58;17.40;1.00
16038;DHT22;8123;50.906;6.172;2023-09-07T01:07:39;17.30;1.00
16038;DHT22;8123;50.906;6.172;2023-09-07T01:10:06;17.30;16.00
16038;DHT22;8123;50.906;6.172;2023-09-07T01:12:33;17.30;12.80
16038;DHT22;8123;50.906;6.172;2023-09-07T01:14:59;17.20;99.90
16038;DHT22;8123;50.906;6.172;2023-09-07T01:17:25;17.20;99.90
16038;DHT22;8123;50.906;6.172;2023-09-07T01:19:52;17.20;99.90
16038;DHT22;8123;50.906;6.172;2023-09-07T01:22:19;17.20;99.90
16038;DHT22;8123;50.906;6.172;2023-09-07T01:24:48;17.20;99.90
16038;DHT22;8123;50.906;6.172;2023-09-07T01:27:16;17.20;99.90
16038;DHT22;8123;50.906;6.172;2023-09-07T01:29:41;17.30;99.90
16038;DHT22;8123;50.906;6.172;2023-09-07T01:32:07;17.30;99.90
16038;DHT22;8123;50.906;6.172;2023-09-07T01:34:35;17.30;7.40
16038;DHT22;8123;50.906;6.172;2023-09-07T01:37:01;17.30;45.80
16038;DHT22;8123;50.906;6.172;2023-09-07T01:39:26;17.30;1.00
16038;DHT22;8123;50.906;6.172;2023-09-07T01:41:52;17.30;1.00
16038;DHT22;8123;50.906;6.172;2023-09-07T01:44:18;17.20;6.80
16038;DHT22;8123;50.906;6.172;2023-09-07T01:46:43;17.20;46.70
16038;DHT22;8123;50.906;6.172;2023-09-07T01:49:09;17.10;99.90
16038;DHT22;8123;50.906;6.172;2023-09-07T01:51:34;17.10;99.90
16038;DHT22;8123;50.906;6.172;2023-09-07T01:54:00;17.10;99.90
16038;DHT22;8123;50.906;6.172;2023-09-07T01:56:26;17.10;99.90
16038;DHT22;8123;50.906;6.172;2023-09-07T01:58:52;17.00;99.90
16038;DHT22;8123;50.906;6.172;2023-09-07T02:01:25;17.10;99.90
16038;DHT22;8123;50.906;6.172;2023-09-07T02:03:51;17.00;1.00
16038;DHT22;8123;50.906;6.172;2023-09-07T02:06:17;17.00;1.00
16038;DHT22;8123;50.906;6.172;2023-09-07T02:08:42;17.00;1.00
16038;DHT22;8123;50.906;6.172;2023-09-07T02:11:08;17.00;1.00
16038;DHT22;8123;50.906;6.172;2023-09-07T02:13:34;17.00;1.00
16038;DHT22;8123;50.906;6.172;2023-09-07T02:16:06;16.90;1.00
16038;DHT22;8123;50.906;6.172;2023-09-07T02:18:32;16.90;1.00
16038;DHT22;8123;50.906;6.172;2023-09-07T02:21:04;16.80;1.00
16038;DHT22;8123;50.906;6.172;2023-09-07T02:23:31;16.80;99.90
16038;DHT22;8123;50.906;6.172;2023-09-07T02:25:57;16.70;99.90
16038;DHT22;8123;50.906;6.172;2023-09-07T02:28:24;16.70;99.90
16038;DHT22;8123;50.906;6.172;2023-09-07T02:30:50;16.60;1.00
16038;DHT22;8123;50.906;6.172;2023-09-07T02:33:15;16.60;1.00
16038;DHT22;8123;50.906;6.172;2023-09-07T02:35:41;16.50;1.00
16038;DHT22;8123;50.906;6.172;2023-09-07T02:38:06;16.50;95.80
16038;DHT22;8123;50.906;6.172;2023-09-07T02:40:32;16.40;99.90
16038;DHT22;8123;50.906;6.172;2023-09-07T02:42:58;16.40;99.90
16038;DHT22;8123;50.906;6.172;2023-09-07T02:45:23;16.40;99.90
16038;DHT22;8123;50.906;6.172;2023-09-07T02:47:49;16.30;99.90
16038;DHT22;8123;50.906;6.172;2023-09-07T02:50:16;16.30;1.00
16038;DHT22;8123;50.906;6.172;2023-09-07T02:52:43;16.30;1.00
16038;DHT22;8123;50.906;6.172;2023-09-07T02:55:08;16.30;1.00
16038;DHT22;8123;50.906;6.172;2023-09-07T02:57:35;16.30;1.00
16038;DHT22;8123;50.906;6.172;2023-09-07T03:00:00;16.30;1.00
16038;DHT22;8123;50.906;6.172;2023-09-07T03:02:27;16.20;1.00
16038;DHT22;8123;50.906;6.172;2023-09-07T03:04:54;16.20;1.00
16038;DHT22;8123;50.906;6.172;2023-09-07T03:07:20;16.20;1.00
16038;DHT22;8123;50.906;6.172;2023-09-07T03:09:46;16.20;1.00
16038;DHT22;8123;50.906;6.172;2023-09-07T03:12:11;16.20;1.00
16038;DHT22;8123;50.906;6.172;2023-09-07T03:14:37;16.20;1.00
16038;DHT22;8123;50.906;6.172;2023-09-07T03:17:02;16.10;39.40
16038;DHT22;8123;50.906;6.172;2023-09-07T03:19:29;16.10;42.30
16038;DHT22;8123;50.906;6.172;2023-09-07T03:21:54;16.00;99.90
16038;DHT22;8123;50.906;6.172;2023-09-07T03:24:20;16.00;99.90
16038;DHT22;8123;50.906;6.172;2023-09-07T03:26:46;16.00;99.90
16038;DHT22;8123;50.906;6.172;2023-09-07T03:29:11;16.00;1.00
16038;DHT22;8123;50.906;6.172;2023-09-07T03:31:37;15.90;1.00
16038;DHT22;8123;50.906;6.172;2023-09-07T03:34:03;15.90;1.00
16038;DHT22;8123;50.906;6.172;2023-09-07T03:36:28;15.90;1.00
16038;DHT22;8123;50.906;6.172;2023-09-07T03:38:54;15.90;1.00
16038;DHT22;8123;50.906;6.172;2023-09-07T03:41:19;15.90;1.00
16038;DHT22;8123;50.906;6.172;2023-09-07T03:43:45;15.80;1.00
16038;DHT22;8123;50.906;6.172;2023-09-07T03:46:11;15.80;1.00
16038;DHT22;8123;50.906;6.172;2023-09-07T03:48:36;15.80;1.00
16038;DHT22;8123;50.906;6.172;2023-09-07T03:51:06;15.70;1.00
16038;DHT22;8123;50.906;6.172;2023-09-07T03:53:31;15.80;1.00
16038;DHT22;8123;50.906;6.172;2023-09-07T03:55:57;15.70;1.00
16038;DHT22;8123;50.906;6.172;2023-09-07T03:58:22;15.80;1.00
16038;DHT22;8123;50.906;6.172;2023-09-07T04:00:48;15.70;1.00
16038;DHT22;8123;50.906;6.172;2023-09-07T04:03:14;15.70;1.00
16038;DHT22;8123;50.906;6.172;2023-09-07T04:05:40;15.70;1.00
16038;DHT22;8123;50.906;6.172;2023-09-07T04:08:06;15.70;1.00
16038;DHT22;8123;50.906;6.172;2023-09-07T04:10:32;15.70;1.00
16038;DHT22;8123;50.906;6.172;2023-09-07T04:12:58;15.70;1.00
16038;DHT22;8123;50.906;6.172;2023-09-07T04:15:24;15.70;1.00
16038;DHT22;8123;50.906;6.172;2023-09-07T04:17:51;15.70;1.00
16038;DHT22;8123;50.906;6.172;2023-09-07T04:20:16;15.60;1.00
16038;DHT22;8123;50.906;6.172;2023-09-07T04:22:42;15.60;1.00
16038;DHT22;8123;50.906;6.172;2023-09-07T04:25:08;15.60;1.00
16038;DHT22;8123;50.906;6.172;2023-09-07T04:27:34;15.50;1.00
16038;DHT22;8123;50.906;6.172;2023-09-07T04:29:59;15.50;1.00
16038;DHT22;8123;50.906;6.172;2023-09-07T04:32:25;15.50;1.00
16038;DHT22;8123;50.906;6.172;2023-09-07T04:34:55;15.50;93.00
16038;DHT22;8123;50.906;6.172;2023-09-07T04:37:21;15.50;99.90
16038;DHT22;8123;50.906;6.172;2023-09-07T04:39:50;15.40;99.90
16038;DHT22;8123;50.906;6.172;2023-09-07T04:42:17;15.40;99.90
16038;DHT22;8123;50.906;6.172;2023-09-07T04:44:43;15.40;99.90
16038;DHT22;8123;50.906;6.172;2023-09-07T04:47:08;15.40;99.90
16038;DHT22;8123;50.906;6.172;2023-09-07T04:49:34;15.40;99.90
16038;DHT22;8123;50.906;6.172;2023-09-07T04:51:59;15.40;99.90
16038;DHT22;8123;50.906;6.172;2023-09-07T04:54:25;15.30;99.90
16038;DHT22;8123;50.906;6.172;2023-09-07T04:56:51;15.40;99.90
16038;DHT22;8123;50.906;6.172;2023-09-07T04:59:17;15.40;99.90
16038;DHT22;8123;50.906;6.172;2023-09-07T05:01:43;15.40;1.00
16038;DHT22;8123;50.906;6.172;2023-09-07T05:04:08;15.40;1.00
16038;DHT22;8123;50.906;6.172;2023-09-07T05:06:34;15.40;1.00
16038;DHT22;8123;50.906;6.172;2023-09-07T05:09:03;15.40;1.00
16038;DHT22;8123;50.906;6.172;2023-09-07T05:11:29;15.40;1.00
16038;DHT22;8123;50.906;6.172;2023-09-07T05:13:54;15.40;1.00
16038;DHT22;8123;50.906;6.172;2023-09-07T05:16:20;15.40;1.00
16038;DHT22;8123;50.906;6.172;2023-09-07T05:18:46;15.40;1.00
16038;DHT22;8123;50.906;6.172;2023-09-07T05:21:14;15.40;1.00
16038;DHT22;8123;50.906;6.172;2023-09-07T05:23:40;15.50;1.00
16038;DHT22;8123;50.906;6.172;2023-09-07T05:26:06;15.50;1.00
16038;DHT22;8123;50.906;6.172;2023-09-07T05:28:32;15.50;1.00
16038;DHT22;8123;50.906;6.172;2023-09-07T05:30:58;15.50;1.00
16038;DHT22;8123;50.906;6.172;2023-09-07T05:33:23;15.50;1.00
16038;DHT22;8123;50.906;6.172;2023-09-07T05:35:49;15.60;1.00
16038;DHT22;8123;50.906;6.172;2023-09-07T05:38:15;15.60;1.00
16038;DHT22;8123;50.906;6.172;2023-09-07T05:40:42;15.60;1.00
16038;DHT22;8123;50.906;6.172;2023-09-07T05:43:12;15.70;1.00
16038;DHT22;8123;50.906;6.172;2023-09-07T05:45:41;15.70;99.90
16038;DHT22;8123;50.906;6.172;2023-09-07T05:48:07;15.80;1.00
16038;DHT22;8123;50.906;6.172;2023-09-07T05:50:37;15.80;1.00
16038;DHT22;8123;50.906;6.172;2023-09-07T05:53:03;15.80;99.90
16038;DHT22;8123;50.906;6.172;2023-09-07T05:55:30;15.90;99.90
16038;DHT22;8123;50.906;6.172;2023-09-07T05:57:56;15.90;99.90
16038;DHT22;8123;50.906;6.172;2023-09-07T06:00:22;15.90;1.00
16038;DHT22;8123;50.906;6.172;2023-09-07T06:02:49;16.00;99.90
16038;DHT22;8123;50.906;6.172;2023-09-07T06:05:15;16.10;99.90
16038;DHT22;8123;50.906;6.172;2023-09-07T06:07:40;16.20;99.90
16038;DHT22;8123;50.906;6.172;2023-09-07T06:10:06;16.20;1.00
16038;DHT22;8123;50.906;6.172;2023-09-07T06:12:32;16.20;1.00
16038;DHT22;8123;50.906;6.172;2023-09-07T06:14:59;16.30;1.00
16038;DHT22;8123;50.906;6.172;2023-09-07T06:17:26;16.30;1.00
16038;DHT22;8123;50.906;6.172;2023-09-07T06:19:51;16.40;1.00
16038;DHT22;8123;50.906;6.172;2023-09-07T06:22:17;16.50;1.00
16038;DHT22;8123;50.906;6.172;2023-09-07T06:24:42;16.50;99.90
16038;DHT22;8123;50.906;6.172;2023-09-07T06:27:08;16.60;99.90
16038;DHT22;8123;50.906;6.172;2023-09-07T06:29:33;16.70;1.00
16038;DHT22;8123;50.906;6.172;2023-09-07T06:31:59;16.70;1.00
16038;DHT22;8123;50.906;6.172;2023-09-07T06:34:26;16.70;1.00
16038;DHT22;8123;50.906;6.172;2023-09-07T06:36:52;16.80;1.00
16038;DHT22;8123;50.906;6.172;2023-09-07T06:39:17;16.90;99.90
16038;DHT22;8123;50.906;6.172;2023-09-07T06:41:46;16.90;99.90
16038;DHT22;8123;50.906;6.172;2023-09-07T06:44:11;17.00;58.30
16038;DHT22;8123;50.906;6.172;2023-09-07T06:46:37;17.00;1.00
16038;DHT22;8123;50.906;6.172;2023-09-07T06:49:03;17.10;1.00
16038;DHT22;8123;50.906;6.172;2023-09-07T06:51:30;17.20;1.00
16038;DHT22;8123;50.906;6.172;2023-09-07T06:53:56;17.20;1.00
16038;DHT22;8123;50.906;6.172;2023-09-07T06:56:22;17.20;1.00
16038;DHT22;8123;50.906;6.172;2023-09-07T06:58:47;17.40;1.00
16038;DHT22;8123;50.906;6.172;2023-09-07T07:01:13;17.40;1.00
16038;DHT22;8123;50.906;6.172;2023-09-07T07:03:39;17.40;1.00
16038;DHT22;8123;50.906;6.172;2023-09-07T07:06:04;17.50;99.90
16038;DHT22;8123;50.906;6.172;2023-09-07T07:08:30;17.60;99.90
16038;DHT22;8123;50.906;6.172;2023-09-07T07:10:56;17.70;99.90
16038;DHT22;8123;50.906;6.172;2023-09-07T07:13:21;17.70;99.90
16038;DHT22;8123;50.906;6.172;2023-09-07T07:15:47;17.80;2.50
16038;DHT22;8123;50.906;6.172;2023-09-07T07:18:13;17.80;1.00
16038;DHT22;8123;50.906;6.172;2023-09-07T07:20:39;17.90;74.80
16038;DHT22;8123;50.906;6.172;2023-09-07T07:23:05;18.00;1.00
16038;DHT22;8123;50.906;6.172;2023-09-07T07:25:32;18.10;1.00
16038;DHT22;8123;50.906;6.172;2023-09-07T07:28:05;18.10;4.30
16038;DHT22;8123;50.906;6.172;2023-09-07T07:30:36;18.10;1.00
16038;DHT22;8123;50.906;6.172;2023-09-07T07:33:02;18.20;1.00
16038;DHT22;8123;50.906;6.172;2023-09-07T07:35:35;18.30;99.90
16038;DHT22;8123;50.906;6.172;2023-09-07T07:38:04;18.30;1.00
16038;DHT22;8123;50.906;6.172;2023-09-07T07:40:30;18.50;1.00
16038;DHT22;8123;50.906;6.172;2023-09-07T07:42:56;18.60;99.90
16038;DHT22;8123;50.906;6.172;2023-09-07T07:45:22;18.60;99.90
16038;DHT22;8123;50.906;6.172;2023-09-07T07:47:49;18.70;99.90
16038;DHT22;8123;50.906;6.172;2023-09-07T07:50:17;18.80;99.90
16038;DHT22;8123;50.906;6.172;2023-09-07T07:52:43;18.80;34.20
16038;DHT22;8123;50.906;6.172;2023-09-07T07:55:14;18.90;1.00
16038;DHT22;8123;50.906;6.172;2023-09-07T07:57:39;19.00;1.00
16038;DHT22;8123;50.906;6.172;2023-09-07T08:00:05;19.10;1.00
16038;DHT22;8123;50.906;6.172;2023-09-07T08:02:32;19.20;99.90
16038;DHT22;8123;50.906;6.172;2023-09-07T08:04:58;19.30;99.90
16038;DHT22;8123;50.906;6.172;2023-09-07T08:07:24;19.30;99.90
16038;DHT22;8123;50.906;6.172;2023-09-07T08:09:50;19.40;99.90
16038;DHT22;8123;50.906;6.172;2023-09-07T08:12:16;19.50;99.90
16038;DHT22;8123;50.906;6.172;2023-09-07T08:14:42;19.60;99.90
16038;DHT22;8123;50.906;6.172;2023-09-07T08:17:08;19.60;99.90
16038;DHT22;8123;50.906;6.172;2023-09-07T08:19:34;19.80;1.00
16038;DHT22;8123;50.906;6.172;2023-09-07T08:21:59;19.80;94.40
16038;DHT22;8123;50.906;6.172;2023-09-07T08:24:29;19.80;99.90
16038;DHT22;8123;50.906;6.172;2023-09-07T08:26:54;20.00;1.00
16038;DHT22;8123;50.906;6.172;2023-09-07T08:29:21;20.00;1.00
16038;DHT22;8123;50.906;6.172;2023-09-07T08:31:50;20.20;1.00
16038;DHT22;8123;50.906;6.172;2023-09-07T08:34:16;20.30;1.00
16038;DHT22;8123;50.906;6.172;2023-09-07T08:36:41;20.30;1.00
16038;DHT22;8123;50.906;6.172;2023-09-07T08:39:07;20.40;1.00
16038;DHT22;8123;50.906;6.172;2023-09-07T08:41:42;20.40;1.00
16038;DHT22;8123;50.906;6.172;2023-09-07T08:44:18;20.50;1.00
16038;DHT22;8123;50.906;6.172;2023-09-07T08:46:45;20.60;99.90
16038;DHT22;8123;50.906;6.172;2023-09-07T08:49:11;20.70;99.90
16038;DHT22;8123;50.906;6.172;2023-09-07T08:51:38;20.70;99.90
16038;DHT22;8123;50.906;6.172;2023-09-07T08:54:05;20.80;99.90
16038;DHT22;8123;50.906;6.172;2023-09-07T08:56:31;21.00;99.90
16038;DHT22;8123;50.906;6.172;2023-09-07T08:58:57;21.10;99.90
16038;DHT22;8123;50.906;6.172;2023-09-07T09:01:23;21.20;99.90
16038;DHT22;8123;50.906;6.172;2023-09-07T09:03:51;21.20;99.90
16038;DHT22;8123;50.906;6.172;2023-09-07T09:06:19;21.40;99.90
16038;DHT22;8123;50.906;6.172;2023-09-07T09:11:18;21.40;99.90
16038;DHT22;8123;50.906;6.172;2023-09-07T09:13:44;21.60;99.90
16038;DHT22;8123;50.906;6.172;2023-09-07T09:16:11;21.60;99.90
16038;DHT22;8123;50.906;6.172;2023-09-07T09:18:38;21.70;99.90
16038;DHT22;8123;50.906;6.172;2023-09-07T09:21:04;21.80;99.90
16038;DHT22;8123;50.906;6.172;2023-09-07T09:23:38;21.80;99.90
16038;DHT22;8123;50.906;6.172;2023-09-07T09:26:04;21.90;99.90
16038;DHT22;8123;50.906;6.172;2023-09-07T09:28:34;21.90;99.90
16038;DHT22;8123;50.906;6.172;2023-09-07T09:31:01;22.00;99.90
16038;DHT22;8123;50.906;6.172;2023-09-07T09:33:30;22.10;99.90
16038;DHT22;8123;50.906;6.172;2023-09-07T09:35:57;22.20;99.90
16038;DHT22;8123;50.906;6.172;2023-09-07T09:38:23;22.20;99.90
16038;DHT22;8123;50.906;6.172;2023-09-07T09:40:49;22.30;64.60
16038;DHT22;8123;50.906;6.172;2023-09-07T09:43:15;22.40;99.90
16038;DHT22;8123;50.906;6.172;2023-09-07T09:45:41;22.40;99.90
16038;DHT22;8123;50.906;6.172;2023-09-07T09:48:06;22.40;99.90
16038;DHT22;8123;50.906;6.172;2023-09-07T09:50:33;22.50;99.90
16038;DHT22;8123;50.906;6.172;2023-09-07T09:53:06;22.60;99.90
16038;DHT22;8123;50.906;6.172;2023-09-07T09:55:35;22.70;4.90
16038;DHT22;8123;50.906;6.172;2023-09-07T09:58:00;22.70;47.50
16038;DHT22;8123;50.906;6.172;2023-09-07T10:00:28;22.80;1.00
16038;DHT22;8123;50.906;6.172;2023-09-07T10:03:24;22.90;1.00
16038;DHT22;8123;50.906;6.172;2023-09-07T10:05:52;23.00;1.00
16038;DHT22;8123;50.906;6.172;2023-09-07T10:08:19;23.10;1.00
16038;DHT22;8123;50.906;6.172;2023-09-07T10:10:52;23.20;1.00
16038;DHT22;8123;50.906;6.172;2023-09-07T10:13:29;23.20;1.00
16038;DHT22;8123;50.906;6.172;2023-09-07T10:16:06;23.30;1.00
16038;DHT22;8123;50.906;6.172;2023-09-07T10:18:38;23.40;1.00
16038;DHT22;8123;50.906;6.172;2023-09-07T10:21:04;23.50;1.00
16038;DHT22;8123;50.906;6.172;2023-09-07T10:23:38;23.60;1.00
16038;DHT22;8123;50.906;6.172;2023-09-07T10:26:09;23.60;1.00
16038;DHT22;8123;50.906;6.172;2023-09-07T10:28:35;23.70;1.00
16038;DHT22;8123;50.906;6.172;2023-09-07T10:31:17;23.70;1.00
16038;DHT22;8123;50.906;6.172;2023-09-07T10:33:43;23.80;1.00
16038;DHT22;8123;50.906;6.172;2023-09-07T10:36:24;23.90;1.00
16038;DHT22;8123;50.906;6.172;2023-09-07T10:38:50;23.90;1.00
16038;DHT22;8123;50.906;6.172;2023-09-07T10:41:19;24.00;1.00
16038;DHT22;8123;50.906;6.172;2023-09-07T10:43:49;24.10;1.00
16038;DHT22;8123;50.906;6.172;2023-09-07T10:46:18;24.10;1.00
16038;DHT22;8123;50.906;6.172;2023-09-07T10:48:45;24.20;1.00
16038;DHT22;8123;50.906;6.172;2023-09-07T10:51:11;24.30;1.00
16038;DHT22;8123;50.906;6.172;2023-09-07T10:53:37;24.30;1.00
16038;DHT22;8123;50.906;6.172;2023-09-07T10:56:04;24.40;1.00
16038;DHT22;8123;50.906;6.172;2023-09-07T11:00:57;24.60;1.00
16038;DHT22;8123;50.906;6.172;2023-09-07T11:03:27;24.70;1.00
16038;DHT22;8123;50.906;6.172;2023-09-07T11:06:17;24.80;1.00
16038;DHT22;8123;50.906;6.172;2023-09-07T11:08:46;24.80;1.00
16038;DHT22;8123;50.906;6.172;2023-09-07T11:11:12;24.80;1.00
16038;DHT22;8123;50.906;6.172;2023-09-07T11:13:38;24.80;1.00
16038;DHT22;8123;50.906;6.172;2023-09-07T11:16:08;24.90;1.00
16038;DHT22;8123;50.906;6.172;2023-09-07T11:18:34;24.90;1.00
16038;DHT22;8123;50.906;6.172;2023-09-07T11:21:03;24.90;1.00
16038;DHT22;8123;50.906;6.172;2023-09-07T11:23:30;25.10;1.00
16038;DHT22;8123;50.906;6.172;2023-09-07T11:26:07;25.20;99.90
16038;DHT22;8123;50.906;6.172;2023-09-07T11:28:33;25.20;99.90
16038;DHT22;8123;50.906;6.172;2023-09-07T11:31:00;25.20;99.90
16038;DHT22;8123;50.906;6.172;2023-09-07T11:33:26;25.30;99.90
16038;DHT22;8123;50.906;6.172;2023-09-07T11:35:53;25.30;99.90
16038;DHT22;8123;50.906;6.172;2023-09-07T11:38:20;25.40;99.90
16038;DHT22;8123;50.906;6.172;2023-09-07T11:40:46;25.50;99.90
16038;DHT22;8123;50.906;6.172;2023-09-07T11:43:16;25.60;99.90
16038;DHT22;8123;50.906;6.172;2023-09-07T11:45:42;25.60;99.90
16038;DHT22;8123;50.906;6.172;2023-09-07T11:48:09;25.70;99.90
16038;DHT22;8123;50.906;6.172;2023-09-07T11:50:36;25.60;99.90
16038;DHT22;8123;50.906;6.172;2023-09-07T11:53:02;25.70;99.90
16038;DHT22;8123;50.906;6.172;2023-09-07T11:55:28;25.70;99.90
16038;DHT22;8123;50.906;6.172;2023-09-07T11:57:54;25.70;99.90
16038;DHT22;8123;50.906;6.172;2023-09-07T12:00:20;25.80;99.90
16038;DHT22;8123;50.906;6.172;2023-09-07T12:02:45;25.90;99.90
16038;DHT22;8123;50.906;6.172;2023-09-07T12:05:11;26.00;99.90
16038;DHT22;8123;50.906;6.172;2023-09-07T12:07:40;26.00;99.90
16038;DHT22;8123;50.906;6.172;2023-09-07T12:10:06;26.10;99.90
16038;DHT22;8123;50.906;6.172;2023-09-07T12:12:36;26.10;99.90
16038;DHT22;8123;50.906;6.172;2023-09-07T12:15:02;26.20;99.90
16038;DHT22;8123;50.906;6.172;2023-09-07T12:17:33;26.20;99.90
16038;DHT22;8123;50.906;6.172;2023-09-07T12:19:58;26.20;99.90
16038;DHT22;8123;50.906;6.172;2023-09-07T12:22:25;26.30;99.90
16038;DHT22;8123;50.906;6.172;2023-09-07T12:24:51;26.20;99.90
16038;DHT22;8123;50.906;6.172;2023-09-07T12:27:16;26.30;99.90
16038;DHT22;8123;50.906;6.172;2023-09-07T12:29:42;26.40;99.90
16038;DHT22;8123;50.906;6.172;2023-09-07T12:32:08;26.40;99.90
16038;DHT22;8123;50.906;6.172;2023-09-07T12:34:55;26.30;99.90
16038;DHT22;8123;50.906;6.172;2023-09-07T12:37:21;26.30;99.90
16038;DHT22;8123;50.906;6.172;2023-09-07T12:39:49;26.40;99.90
16038;DHT22;8123;50.906;6.172;2023-09-07T12:42:15;26.40;99.90
16038;DHT22;8123;50.906;6.172;2023-09-07T12:44:40;26.50;99.90
16038;DHT22;8123;50.906;6.172;2023-09-07T12:47:06;26.50;99.90
16038;DHT22;8123;50.906;6.172;2023-09-07T12:49:31;26.40;99.90
16038;DHT22;8123;50.906;6.172;2023-09-07T12:51:57;26.60;99.90
16038;DHT22;8123;50.906;6.172;2023-09-07T12:54:23;26.70;93.30
16038;DHT22;8123;50.906;6.172;2023-09-07T12:56:49;26.70;83.00
16038;DHT22;8123;50.906;6.172;2023-09-07T12:59:14;26.80;44.40
16038;DHT22;8123;50.906;6.172;2023-09-07T13:01:40;26.80;44.10
16038;DHT22;8123;50.906;6.172;2023-09-07T13:04:06;26.90;41.40
16038;DHT22;8123;50.906;6.172;2023-09-07T13:06:31;26.90;28.00
16038;DHT22;8123;50.906;6.172;2023-09-07T13:08:57;26.90;26.60
16038;DHT22;8123;50.906;6.172;2023-09-07T13:11:23;27.00;21.30
16038;DHT22;8123;50.906;6.172;2023-09-07T13:13:48;27.00;20.90
16038;DHT22;8123;50.906;6.172;2023-09-07T13:16:14;26.90;8.90
16038;DHT22;8123;50.906;6.172;2023-09-07T13:18:40;26.80;16.30
16038;DHT22;8123;50.906;6.172;2023-09-07T13:21:05;26.80;13.40
16038;DHT22;8123;50.906;6.172;2023-09-07T13:23:32;26.80;21.90
16038;DHT22;8123;50.906;6.172;2023-09-07T13:25:58;26.90;2.50
16038;DHT22;8123;50.906;6.172;2023-09-07T13:28:25;27.00;1.00
16038;DHT22;8123;50.906;6.172;2023-09-07T13:30:51;27.00;1.00
16038;DHT22;8123;50.906;6.172;2023-09-07T13:33:16;26.90;1.00
16038;DHT22;8123;50.906;6.172;2023-09-07T13:35:42;26.80;1.00
16038;DHT22;8123;50.906;6.172;2023-09-07T13:38:09;26.80;1.00
16038;DHT22;8123;50.906;6.172;2023-09-07T13:40:34;26.80;1.00
16038;DHT22;8123;50.906;6.172;2023-09-07T13:43:00;26.80;1.00
16038;DHT22;8123;50.906;6.172;2023-09-07T13:45:26;26.80;1.00
16038;DHT22;8123;50.906;6.172;2023-09-07T13:47:51;26.80;1.00
16038;DHT22;8123;50.906;6.172;2023-09-07T13:50:17;26.90;1.00
16038;DHT22;8123;50.906;6.172;2023-09-07T13:52:42;27.00;1.00
16038;DHT22;8123;50.906;6.172;2023-09-07T13:55:08;26.90;1.00
16038;DHT22;8123;50.906;6.172;2023-09-07T13:57:34;27.00;1.00
16038;DHT22;8123;50.906;6.172;2023-09-07T14:00:00;27.10;1.00
16038;DHT22;8123;50.906;6.172;2023-09-07T14:02:26;27.20;1.00
16038;DHT22;8123;50.906;6.172;2023-09-07T14:04:51;27.30;1.00
16038;DHT22;8123;50.906;6.172;2023-09-07T14:07:17;27.30;1.00
16038;DHT22;8123;50.906;6.172;2023-09-07T14:09:43;27.20;1.00
16038;DHT22;8123;50.906;6.172;2023-09-07T14:12:09;27.20;1.00
16038;DHT22;8123;50.906;6.172;2023-09-07T14:14:35;27.10;1.00
16038;DHT22;8123;50.906;6.172;2023-09-07T14:17:01;27.10;1.00
16038;DHT22;8123;50.906;6.172;2023-09-07T14:19:27;27.20;1.00
16038;DHT22;8123;50.906;6.172;2023-09-07T14:21:56;27.30;1.00
16038;DHT22;8123;50.906;6.172;2023-09-07T14:24:23;27.30;1.00
16038;DHT22;8123;50.906;6.172;2023-09-07T14:26:49;27.40;1.00
16038;DHT22;8123;50.906;6.172;2023-09-07T14:29:14;27.40;1.00
16038;DHT22;8123;50.906;6.172;2023-09-07T14:31:40;27.40;1.00
16038;DHT22;8123;50.906;6.172;2023-09-07T14:34:08;27.50;1.00
16038;DHT22;8123;50.906;6.172;2023-09-07T14:36:33;27.40;1.00
16038;DHT22;8123;50.906;6.172;2023-09-07T14:38:59;27.30;1.00
16038;DHT22;8123;50.906;6.172;2023-09-07T14:41:24;27.20;1.00
16038;DHT22;8123;50.906;6.172;2023-09-07T14:43:50;27.20;1.00
16038;DHT22;8123;50.906;6.172;2023-09-07T14:46:16;27.10;1.00
16038;DHT22;8123;50.906;6.172;2023-09-07T14:48:44;27.30;1.00
16038;DHT22;8123;50.906;6.172;2023-09-07T14:51:10;27.30;1.00
16038;DHT22;8123;50.906;6.172;2023-09-07T14:53:35;27.20;1.00
16038;DHT22;8123;50.906;6.172;2023-09-07T14:56:01;27.10;1.00
16038;DHT22;8123;50.906;6.172;2023-09-07T14:58:27;27.10;1.00
16038;DHT22;8123;50.906;6.172;2023-09-07T15:00:53;27.10;1.00
16038;DHT22;8123;50.906;6.172;2023-09-07T15:03:18;27.10;1.00
16038;DHT22;8123;50.906;6.172;2023-09-07T15:05:44;27.00;1.00
16038;DHT22;8123;50.906;6.172;2023-09-07T15:08:10;27.10;1.00
16038;DHT22;8123;50.906;6.172;2023-09-07T15:10:35;27.10;1.00
16038;DHT22;8123;50.906;6.172;2023-09-07T15:13:01;27.10;1.00
16038;DHT22;8123;50.906;6.172;2023-09-07T15:15:31;27.10;1.00
16038;DHT22;8123;50.906;6.172;2023-09-07T15:18:03;27.20;1.00
16038;DHT22;8123;50.906;6.172;2023-09-07T15:20:29;27.10;1.00
16038;DHT22;8123;50.906;6.172;2023-09-07T15:22:55;27.30;1.00
16038;DHT22;8123;50.906;6.172;2023-09-07T15:25:20;27.30;1.00
16038;DHT22;8123;50.906;6.172;2023-09-07T15:27:46;27.20;1.00
16038;DHT22;8123;50.906;6.172;2023-09-07T15:30:13;27.10;1.00
16038;DHT22;8123;50.906;6.172;2023-09-07T15:32:39;27.00;1.00
16038;DHT22;8123;50.906;6.172;2023-09-07T15:35:06;27.00;1.00
16038;DHT22;8123;50.906;6.172;2023-09-07T15:37:32;27.00;1.00
16038;DHT22;8123;50.906;6.172;2023-09-07T15:39:58;27.00;1.00
16038;DHT22;8123;50.906;6.172;2023-09-07T15:42:24;27.20;1.00
16038;DHT22;8123;50.906;6.172;2023-09-07T15:44:49;27.10;1.00
16038;DHT22;8123;50.906;6.172;2023-09-07T15:47:15;27.10;1.00
16038;DHT22;8123;50.906;6.172;2023-09-07T15:49:41;27.10;1.00
16038;DHT22;8123;50.906;6.172;2023-09-07T15:52:09;27.00;1.00
16038;DHT22;8123;50.906;6.172;2023-09-07T15:54:35;27.10;1.00
16038;DHT22;8123;50.906;6.172;2023-09-07T15:57:01;27.10;1.00